Terminal Aerodrome Forecast
Issued by NWS Sioux Falls, SD

Home | Current Version | Previous Version | Graphics & Text | Print | Product List | Glossary On
Versions: 1 2 3 4 5 6 7 8 9 10 11 12 13 14 15 16 17 18 19 20 21 22 23 24 25 26 27 28 29 30 31 32 33 34 35
000
FTUS43 KFSD 100530
TAFSUX
TAF
KSUX 100530Z 1006/1106 VRB04KT P6SM BKN080
     FM101200 12008KT 4SM -SN OVC040
      TEMPO 1013/1015 2SM -SN BR OVC025
     FM101600 11010KT 4SM BR OVC025
     FM110100 07007KT P6SM OVC020=

USA.gov is the U.S. government's official web portal to all federal, state and local government web resources and services.